Time;durP1;ratioP1;P1;durP2;ratioP2;P2;SDS_P1;SDS_P2;PMS_P1;PMS_P2;Temp;Humidity;BMP_temperature;BMP_pressure;BME280_temperature;BME280_humidity;BME280_pressure;Samples;Min_cycle;Max_cycle;Signal;HPM_P1;HPM_P2
2022/11/01 00:01:10;;;;;;;19.77;10.60;;;14.20;99.90;;;;;;4954630;29;20497;-64
2022/11/01 00:03:36;;;;;;;18.15;9.45;;;14.30;99.90;;;;;;4939112;29;20051;-64
2022/11/01 00:06:02;;;;;;;23.17;9.65;;;14.30;99.90;;;;;;4956808;29;20051;-64
2022/11/01 00:08:28;;;;;;;19.35;10.13;;;14.30;99.90;;;;;;4954208;29;20044;-64
2022/11/01 00:11:03;;;;;;;22.15;9.85;;;14.50;99.90;;;;;;4939129;29;20050;-64
2022/11/01 00:13:29;;;;;;;22.17;9.82;;;14.40;99.90;;;;;;4956221;29;20035;-64
2022/11/01 00:15:54;;;;;;;22.65;9.30;;;14.40;99.90;;;;;;4938407;29;20485;-64
2022/11/01 00:18:20;;;;;;;17.23;8.60;;;14.50;99.90;;;;;;4956180;29;20403;-64
2022/11/01 00:20:45;;;;;;;19.42;9.68;;;14.50;99.90;;;;;;4955967;29;20047;-64
2022/11/01 00:23:11;;;;;;;15.85;7.85;;;14.60;99.90;;;;;;4938545;29;20090;-64
2022/11/01 00:25:37;;;;;;;17.70;8.15;;;14.70;99.90;;;;;;4936740;29;20150;-64
2022/11/01 00:28:02;;;;;;;14.95;8.50;;;14.70;99.90;;;;;;4950579;29;20070;-64
2022/11/01 00:30:28;;;;;;;18.75;7.60;;;14.70;99.90;;;;;;4945289;29;20043;-65
2022/11/01 00:32:56;;;;;;;16.25;8.32;;;14.80;99.90;;;;;;4953176;29;20043;-64
2022/11/01 00:35:21;;;;;;;16.60;8.65;;;14.80;99.90;;;;;;4935715;29;20044;-65
2022/11/01 00:37:47;;;;;;;19.00;7.70;;;14.80;99.90;;;;;;4951708;29;20456;-64
2022/11/01 00:40:13;;;;;;;14.07;7.13;;;15.10;99.90;;;;;;4936847;29;20111;-64
2022/11/01 00:42:39;;;;;;;14.23;8.13;;;;;;;;;;4954824;28;20047;-64
2022/11/01 00:45:05;;;;;;;17.30;7.38;;;14.80;99.90;;;;;;4920198;29;20039;-64
2022/11/01 00:47:30;;;;;;;13.98;6.57;;;15.00;99.90;;;;;;4925438;29;20178;-64
2022/11/01 00:49:56;;;;;;;16.67;6.97;;;15.00;99.90;;;;;;4938344;29;20492;-64
2022/11/01 00:52:21;;;;;;;16.50;7.18;;;15.10;99.90;;;;;;4954711;29;20031;-64
2022/11/01 00:54:47;;;;;;;12.93;7.07;;;15.00;99.90;;;;;;4937342;29;20058;-64
2022/11/01 00:57:12;;;;;;;16.08;7.03;;;15.00;99.90;;;;;;4935633;29;20063;-64
2022/11/01 00:59:38;;;;;;;12.23;6.80;;;15.10;99.90;;;;;;4937683;29;20043;-64
2022/11/01 01:02:03;;;;;;;16.95;6.72;;;15.10;99.90;;;;;;4950014;29;20110;-64
2022/11/01 01:04:29;;;;;;;11.32;5.97;;;14.90;99.90;;;;;;4938489;29;20047;-64
2022/11/01 01:06:54;;;;;;;14.43;7.82;;;15.20;99.90;;;;;;4937736;29;20097;-64
2022/11/01 01:09:21;;;;;;;15.73;6.80;;;15.10;99.90;;;;;;4942786;29;20039;-64
2022/11/01 01:11:46;;;;;;;15.27;6.68;;;15.20;99.90;;;;;;4950793;29;20113;-64
2022/11/01 01:14:12;;;;;;;12.07;6.45;;;15.20;99.90;;;;;;4954362;29;20040;-64
2022/11/01 01:16:38;;;;;;;18.35;5.75;;;15.00;99.90;;;;;;4951949;29;20050;-64
2022/11/01 01:19:03;;;;;;;13.65;6.50;;;15.10;99.90;;;;;;4952196;29;20135;-64
2022/11/01 01:21:29;;;;;;;11.32;6.65;;;15.00;99.90;;;;;;4950857;29;20039;-64
2022/11/01 01:23:54;;;;;;;17.98;6.57;;;15.00;99.90;;;;;;4952167;28;20071;-64
2022/11/01 01:26:20;;;;;;;15.57;6.47;;;15.00;99.90;;;;;;4936429;29;20117;-64
2022/11/01 01:28:45;;;;;;;13.50;6.45;;;15.10;99.90;;;;;;4935861;29;20454;-64
2022/11/01 01:31:12;;;;;;;14.82;6.03;;;15.00;99.90;;;;;;4949813;29;20134;-65
2022/11/01 01:33:38;;;;;;;18.15;6.70;;;15.00;99.90;;;;;;4928445;29;20051;-64
2022/11/01 01:36:05;;;;;;;12.10;6.47;;;14.90;99.90;;;;;;4936554;29;20039;-64
2022/11/01 01:38:30;;;;;;;10.65;6.70;;;14.90;99.90;;;;;;4934841;29;20649;-64
2022/11/01 01:41:54;;;;;;;12.02;6.55;;;14.90;99.90;;;;;;4951412;29;20082;-64
2022/11/01 01:43:45;;;;;;;14.95;6.63;;;15.00;99.90;;;;;;4931772;29;20047;-64
2022/11/01 01:46:11;;;;;;;13.98;6.85;;;14.80;99.90;;;;;;4951973;29;20074;-64
2022/11/01 01:48:39;;;;;;;17.77;6.78;;;14.80;99.90;;;;;;4954174;29;20459;-64
2022/11/01 01:51:09;;;;;;;13.05;6.30;;;14.90;99.90;;;;;;4937164;29;20122;-64
2022/11/01 01:53:43;;;;;;;13.60;6.43;;;14.90;99.90;;;;;;4954252;28;20578;-64
2022/11/01 01:56:23;;;;;;;11.98;6.20;;;14.90;99.90;;;;;;4954268;29;20508;-64
2022/11/01 01:58:57;;;;;;;11.95;6.10;;;15.00;99.90;;;;;;4937256;29;20114;-64
2022/11/01 02:01:23;;;;;;;14.75;5.80;;;14.80;99.90;;;;;;4935348;29;20049;-64
2022/11/01 02:03:49;;;;;;;15.88;5.78;;;14.90;99.90;;;;;;4953431;29;20496;-64
2022/11/01 02:06:17;;;;;;;12.95;6.55;;;15.00;99.90;;;;;;4936070;29;20062;-64
2022/11/01 02:08:52;;;;;;;13.50;5.22;;;14.90;99.90;;;;;;4943207;29;20089;-64
2022/11/01 02:11:19;;;;;;;15.18;5.72;;;15.00;99.90;;;;;;4925326;29;20042;-64
2022/11/01 02:13:44;;;;;;;12.68;5.85;;;14.90;99.90;;;;;;4936945;29;20058;-64
2022/11/01 02:16:17;;;;;;;16.65;6.47;;;15.00;99.90;;;;;;4951992;29;20031;-64
2022/11/01 02:19:05;;;;;;;22.02;5.70;;;15.10;99.90;;;;;;4937138;29;20084;-64
2022/11/01 02:22:02;;;;;;;11.18;5.90;;;14.90;99.90;;;;;;4951494;29;20040;-64
2022/11/01 02:24:54;;;;;;;13.10;7.15;;;15.00;99.90;;;;;;4929432;28;20054;-64
2022/11/01 02:28:00;;;;;;;10.20;5.38;;;15.20;99.90;;;;;;4953491;29;20058;-64
2022/11/01 02:30:38;;;;;;;14.98;5.93;;;14.90;99.90;;;;;;4948644;29;20051;-64
2022/11/01 02:33:28;;;;;;;17.85;7.05;;;15.00;99.90;;;;;;4951782;29;20060;-64
2022/11/01 02:36:05;;;;;;;11.95;5.32;;;14.90;99.90;;;;;;4948926;29;20036;-64
2022/11/01 02:38:38;;;;;;;13.48;5.65;;;14.90;99.90;;;;;;4933660;29;20090;-64
2022/11/01 02:41:32;;;;;;;11.13;5.95;;;14.80;99.90;;;;;;4945561;29;20449;-64
2022/11/01 02:44:02;;;;;;;12.63;5.57;;;15.00;99.90;;;;;;4940837;29;20039;-64
2022/11/01 02:49:19;;;;;;;10.70;5.57;;;14.90;99.90;;;;;;4953075;29;20406;-64
2022/11/01 02:51:47;;;;;;;17.95;5.35;;;15.00;99.90;;;;;;4951708;29;20035;-64
2022/11/01 02:54:22;;;;;;;12.43;5.20;;;15.00;99.90;;;;;;4952967;29;20123;-64
2022/11/01 02:56:49;;;;;;;12.77;5.50;;;15.00;99.90;;;;;;4936055;29;20568;-64
2022/11/01 02:59:25;;;;;;;15.93;5.93;;;14.90;99.90;;;;;;4952174;29;20040;-65
2022/11/01 03:02:02;;;;;;;11.70;6.35;;;15.00;99.90;;;;;;4940228;28;20094;-64
2022/11/01 03:04:28;;;;;;;17.75;6.47;;;15.00;99.90;;;;;;4945057;29;20047;-64
2022/11/01 03:07:00;;;;;;;16.60;5.15;;;15.20;99.90;;;;;;4949436;29;20043;-64
2022/11/01 03:09:27;;;;;;;11.18;5.40;;;15.20;99.90;;;;;;4951608;29;20136;-64
2022/11/01 03:11:58;;;;;;;16.90;6.40;;;15.10;99.90;;;;;;4934893;29;20141;-64
2022/11/01 03:14:48;;;;;;;10.15;4.82;;;15.30;99.90;;;;;;4946953;29;20044;-64
2022/11/01 03:17:31;;;;;;;12.13;5.30;;;15.20;99.90;;;;;;4945596;29;20043;-64
2022/11/01 03:20:21;;;;;;;11.63;5.28;;;15.40;99.90;;;;;;4939864;29;20047;-64
2022/11/01 03:22:52;;;;;;;14.95;6.07;;;15.40;99.90;;;;;;4948075;29;20039;-64
2022/11/01 03:25:38;;;;;;;9.32;5.47;;;15.10;99.90;;;;;;4955966;29;20035;-64
2022/11/01 03:28:16;;;;;;;12.05;5.00;;;15.40;99.90;;;;;;4938038;29;20031;-64
2022/11/01 03:30:49;;;;;;;13.40;5.97;;;15.30;99.90;;;;;;4950427;29;20031;-64
2022/11/01 03:33:15;;;;;;;11.82;5.95;;;15.40;99.90;;;;;;4955098;29;20070;-65
2022/11/01 03:35:45;;;;;;;13.90;5.60;;;15.20;99.90;;;;;;4943346;29;20043;-65
2022/11/01 03:38:16;;;;;;;13.45;4.88;;;15.30;99.90;;;;;;4946479;28;20106;-67
2022/11/01 03:40:49;;;;;;;13.88;5.97;;;15.50;99.90;;;;;;4951789;28;20118;-65
2022/11/01 03:43:17;;;;;;;13.10;5.75;;;15.70;99.90;;;;;;4949570;29;20047;-64
2022/11/01 03:45:43;;;;;;;12.55;5.50;;;15.80;99.90;;;;;;4947732;28;20039;-64
2022/11/01 03:48:09;;;;;;;11.00;6.13;;;15.50;99.90;;;;;;4953294;28;20071;-64
2022/11/01 03:50:35;;;;;;;13.23;5.50;;;15.60;99.90;;;;;;4956800;29;20047;-64
2022/11/01 03:53:01;;;;;;;9.07;5.45;;;15.60;99.90;;;;;;4939395;29;20094;-64
2022/11/01 03:55:26;;;;;;;12.43;5.82;;;15.80;99.90;;;;;;4956520;29;20036;-64
2022/11/01 03:57:54;;;;;;;11.70;5.03;;;16.00;99.90;;;;;;4938813;29;20047;-64
2022/11/01 04:00:21;;;;;;;10.40;5.13;;;15.80;99.90;;;;;;4955883;29;20110;-64
2022/11/01 04:02:48;;;;;;;16.38;5.88;;;16.00;99.90;;;;;;4938153;29;20055;-64
2022/11/01 04:05:14;;;;;;;15.15;5.38;;;15.90;99.90;;;;;;4955535;29;20082;-64
2022/11/01 04:07:41;;;;;;;14.98;5.20;;;16.50;99.90;;;;;;4955227;29;20039;-64
2022/11/01 04:10:07;;;;;;;14.10;4.95;;;16.00;99.90;;;;;;4955456;29;20489;-64
2022/11/01 04:12:33;;;;;;;9.45;4.90;;;16.00;99.90;;;;;;4939274;29;20097;-64
2022/11/01 04:20:32;;;;;;;10.10;4.30;;;16.20;99.90;;;;;;4938903;29;20433;-64
2022/11/01 04:23:03;;;;;;;7.47;4.43;;;16.20;99.90;;;;;;4937247;29;20048;-64
2022/11/01 04:25:29;;;;;;;12.45;4.38;;;16.20;99.90;;;;;;4933464;29;20047;-64
2022/11/01 04:27:55;;;;;;;10.05;4.70;;;16.30;99.90;;;;;;4954974;29;20114;-64
2022/11/01 04:30:26;;;;;;;14.10;5.18;;;16.20;99.90;;;;;;4937024;29;20169;-64
2022/11/01 04:32:51;;;;;;;9.05;4.57;;;16.30;99.90;;;;;;4943021;29;20442;-65
2022/11/01 04:35:17;;;;;;;7.93;5.03;;;16.30;99.90;;;;;;4953008;29;20031;-64
2022/11/01 04:37:43;;;;;;;9.82;4.47;;;;;;;;;;4924802;29;20039;-65
2022/11/01 04:40:10;;;;;;;12.65;4.10;;;16.40;99.90;;;;;;4945833;28;20179;-64
2022/11/01 04:42:36;;;;;;;11.15;4.68;;;16.40;99.90;;;;;;4928915;29;20043;-64
2022/11/01 04:45:04;;;;;;;9.18;4.22;;;16.20;99.90;;;;;;4955377;29;20093;-64
2022/11/01 04:47:29;;;;;;;12.07;4.85;;;16.20;99.90;;;;;;4952854;29;20770;-64
2022/11/01 04:49:55;;;;;;;10.52;4.68;;;16.20;99.90;;;;;;4950868;29;20031;-64
2022/11/01 04:52:21;;;;;;;7.13;3.90;;;16.20;99.90;;;;;;4936070;29;20050;-65
2022/11/01 04:54:47;;;;;;;13.20;4.68;;;;;;;;;;4953305;28;20043;-65
2022/11/01 04:57:23;;;;;;;12.25;4.70;;;16.30;99.90;;;;;;4948057;29;20142;-66
2022/11/01 04:59:50;;;;;;;13.73;4.78;;;16.30;99.90;;;;;;4934352;29;20414;-64
2022/11/01 05:02:16;;;;;;;7.05;4.43;;;16.30;99.90;;;;;;4945037;29;20031;-64
2022/11/01 05:04:41;;;;;;;9.05;4.22;;;16.40;99.90;;;;;;4953795;29;20043;-64
2022/11/01 05:07:07;;;;;;;9.38;4.50;;;16.40;99.90;;;;;;4936778;29;20126;-64
2022/11/01 05:09:32;;;;;;;6.82;4.55;;;16.40;99.90;;;;;;4949018;28;20071;-64
2022/11/01 05:11:58;;;;;;;7.75;3.78;;;16.50;99.90;;;;;;4954167;29;20035;-64
2022/11/01 05:14:23;;;;;;;12.07;3.83;;;16.30;99.90;;;;;;4953039;29;20063;-64
2022/11/01 05:16:49;;;;;;;10.50;3.90;;;16.30;99.90;;;;;;4952613;29;20086;-64
2022/11/01 05:19:15;;;;;;;12.32;4.40;;;16.20;99.90;;;;;;4917942;29;20098;-64
2022/11/01 05:21:40;;;;;;;10.43;4.32;;;16.00;99.90;;;;;;4935214;29;20054;-64
2022/11/01 05:24:06;;;;;;;6.07;2.90;;;16.10;99.90;;;;;;4946895;29;20043;-64
2022/11/01 05:26:33;;;;;;;5.88;1.75;;;16.10;99.90;;;;;;4952914;28;20063;-64
2022/11/01 05:28:58;;;;;;;6.43;2.13;;;16.00;99.90;;;;;;4953422;28;20035;-64
2022/11/01 05:31:24;;;;;;;5.25;1.67;;;15.70;99.90;;;;;;4936774;29;20039;-64
2022/11/01 05:33:50;;;;;;;7.60;1.70;;;15.80;99.90;;;;;;4934944;29;20051;-64
2022/11/01 05:36:15;;;;;;;3.03;0.93;;;15.50;99.90;;;;;;4954637;29;20043;-65
2022/11/01 05:38:41;;;;;;;2.88;0.98;;;15.50;99.90;;;;;;4932956;29;20401;-64
2022/11/01 05:41:06;;;;;;;8.05;1.00;;;15.70;99.90;;;;;;4928772;29;20043;-66
2022/11/01 05:43:32;;;;;;;3.55;0.90;;;15.40;99.90;;;;;;4953169;29;20031;-65
2022/11/01 05:45:57;;;;;;;5.45;1.02;;;15.30;99.90;;;;;;4949180;29;20118;-64
2022/11/01 05:48:23;;;;;;;4.32;1.05;;;15.40;99.90;;;;;;4927877;29;20036;-65
2022/11/01 05:50:49;;;;;;;7.15;1.85;;;15.30;99.90;;;;;;4952608;29;20138;-65
2022/11/01 05:53:14;;;;;;;3.15;1.17;;;15.10;99.90;;;;;;4936620;29;20066;-65
2022/11/01 05:55:41;;;;;;;3.58;1.02;;;15.00;99.90;;;;;;4954397;29;20043;-64
2022/11/01 05:58:07;;;;;;;2.80;1.30;;;;;;;;;;4937241;29;20043;-65
2022/11/01 06:00:33;;;;;;;6.30;1.17;;;15.00;99.90;;;;;;4954451;29;20059;-64
2022/11/01 06:02:59;;;;;;;3.35;1.08;;;14.90;99.90;;;;;;4930900;29;20049;-64
2022/11/01 06:05:26;;;;;;;6.25;0.98;;;14.80;99.90;;;;;;4953268;29;20114;-64
2022/11/01 06:07:52;;;;;;;8.43;0.90;;;;;;;;;;4954196;29;20094;-65
2022/11/01 06:10:17;;;;;;;3.80;1.95;;;14.90;99.90;;;;;;4953392;29;20490;-65
2022/11/01 06:12:43;;;;;;;8.20;1.30;;;15.10;99.90;;;;;;4953740;29;20122;-64
2022/11/01 06:15:09;;;;;;;9.32;1.05;;;14.90;99.90;;;;;;4953263;29;20485;-64
2022/11/01 06:17:34;;;;;;;2.13;1.05;;;14.90;99.90;;;;;;4953770;29;20043;-64
2022/11/01 06:20:00;;;;;;;4.50;1.15;;;14.90;99.90;;;;;;4949774;29;20407;-64
2022/11/01 06:22:26;;;;;;;4.55;1.90;;;14.70;99.90;;;;;;4927399;29;20486;-64
2022/11/01 06:24:51;;;;;;;6.65;1.27;;;14.80;99.90;;;;;;4928199;29;20043;-64
2022/11/01 06:27:17;;;;;;;4.45;1.27;;;14.70;99.90;;;;;;4933170;29;20423;-65
2022/11/01 06:29:43;;;;;;;1.75;0.80;;;;;;;;;;4936168;29;20101;-64
2022/11/01 06:32:08;;;;;;;7.22;1.52;;;14.80;99.90;;;;;;4935684;29;20103;-64
2022/11/01 06:34:34;;;;;;;5.78;1.40;;;14.70;99.90;;;;;;4945820;29;20047;-66
2022/11/01 06:37:00;;;;;;;5.53;1.30;;;14.60;99.90;;;;;;4935932;29;20046;-64
2022/11/01 06:39:25;;;;;;;6.75;1.10;;;14.50;99.90;;;;;;4926742;29;20050;-64
2022/11/01 06:41:51;;;;;;;6.47;1.20;;;14.40;99.90;;;;;;4951305;28;20132;-64
2022/11/01 06:44:17;;;;;;;7.72;1.38;;;14.50;99.90;;;;;;4955714;29;20034;-64
2022/11/01 06:46:42;;;;;;;9.07;1.17;;;14.70;99.90;;;;;;4957648;28;20050;-64
2022/11/01 06:49:08;;;;;;;5.72;1.42;;;14.60;99.90;;;;;;4950976;28;20067;-64
2022/11/01 06:51:33;;;;;;;4.85;1.23;;;14.50;99.90;;;;;;4957782;29;20075;-64
2022/11/01 06:53:59;;;;;;;11.15;2.28;;;14.40;99.90;;;;;;4931369;29;20039;-65
2022/11/01 06:56:25;;;;;;;8.43;1.52;;;14.40;99.90;;;;;;4955547;29;20125;-64
2022/11/01 06:58:50;;;;;;;3.78;1.00;;;14.40;99.90;;;;;;4939628;29;20035;-64
2022/11/01 07:01:20;;;;;;;6.85;1.33;;;14.40;99.90;;;;;;4936863;29;20387;-64
2022/11/01 07:03:52;;;;;;;7.43;1.70;;;14.30;99.90;;;;;;4929387;29;20098;-64
2022/11/01 07:06:18;;;;;;;6.72;1.30;;;14.40;99.90;;;;;;4955285;29;20038;-64
2022/11/01 07:08:44;;;;;;;11.43;1.92;;;14.50;99.90;;;;;;4938240;28;20509;-64
2022/11/01 07:11:09;;;;;;;11.25;2.00;;;14.40;99.90;;;;;;4939120;28;20043;-65
2022/11/01 07:13:36;;;;;;;7.00;1.40;;;14.50;99.90;;;;;;4936406;29;20047;-65
2022/11/01 07:16:03;;;;;;;7.07;2.03;;;14.30;99.90;;;;;;4957318;29;20046;-65
2022/11/01 07:18:30;;;;;;;7.18;1.67;;;14.30;99.90;;;;;;4939775;29;20047;-65
2022/11/01 07:20:56;;;;;;;6.00;1.63;;;14.40;99.90;;;;;;4956890;29;20031;-65
2022/11/01 07:23:22;;;;;;;14.18;1.65;;;14.60;99.90;;;;;;4956494;29;20138;-65
2022/11/01 07:25:51;;;;;;;9.15;1.67;;;14.70;99.90;;;;;;4937722;29;20046;-65
2022/11/01 07:28:17;;;;;;;7.82;1.85;;;14.60;99.90;;;;;;4939325;29;20047;-64
2022/11/01 07:30:46;;;;;;;7.57;1.85;;;14.50;99.90;;;;;;4930781;29;20135;-65
2022/11/01 07:33:12;;;;;;;10.20;2.08;;;14.50;99.90;;;;;;4920742;29;20406;-65
2022/11/01 07:35:37;;;;;;;11.13;1.98;;;14.60;99.90;;;;;;4953483;29;20076;-66
2022/11/01 07:38:03;;;;;;;11.00;1.50;;;14.70;99.90;;;;;;4954960;28;20027;-64
2022/11/01 07:40:28;;;;;;;6.68;1.17;;;14.90;99.90;;;;;;4933843;29;20041;-64
2022/11/01 07:42:57;;;;;;;10.50;1.45;;;14.90;99.90;;;;;;4950359;29;20039;-64
2022/11/01 07:45:23;;;;;;;5.03;1.52;;;14.90;99.90;;;;;;4956752;28;20046;-64
2022/11/01 07:47:50;;;;;;;7.35;1.35;;;15.00;99.90;;;;;;4949196;29;20043;-63
2022/11/01 07:50:15;;;;;;;8.85;1.40;;;15.00;99.90;;;;;;4939537;29;20490;-64
2022/11/01 07:52:41;;;;;;;7.87;1.73;;;15.00;99.90;;;;;;4954172;28;20042;-63
2022/11/01 07:55:07;;;;;;;5.05;1.23;;;15.20;99.90;;;;;;4956598;29;20265;-64
2022/11/01 07:57:38;;;;;;;6.78;1.90;;;15.20;99.90;;;;;;4956330;29;20059;-63
2022/11/01 08:00:04;;;;;;;9.48;1.75;;;15.00;99.90;;;;;;4956644;29;20051;-64
2022/11/01 08:02:30;;;;;;;8.52;1.83;;;15.20;99.90;;;;;;4930944;29;20052;-64
2022/11/01 08:04:56;;;;;;;7.13;1.45;;;;;;;;;;4955636;28;20047;-63
2022/11/01 08:07:21;;;;;;;7.43;1.60;;;15.10;99.90;;;;;;4949772;29;20043;-66
2022/11/01 08:09:47;;;;;;;12.20;1.90;;;15.00;99.90;;;;;;4955181;29;20156;-65
2022/11/01 08:12:13;;;;;;;10.52;2.00;;;14.90;99.90;;;;;;4938325;28;20039;-66
2022/11/01 08:14:39;;;;;;;12.27;1.70;;;14.80;99.90;;;;;;4955646;28;20090;-65
2022/11/01 08:17:04;;;;;;;7.00;2.17;;;14.70;99.90;;;;;;4956873;29;20063;-65
2022/11/01 08:19:30;;;;;;;15.52;2.50;;;14.60;99.90;;;;;;4955992;29;20078;-66
2022/11/01 08:21:57;;;;;;;16.98;2.10;;;14.60;99.90;;;;;;4953386;28;20039;-65
2022/11/01 08:24:32;;;;;;;13.02;2.90;;;14.50;99.90;;;;;;4937162;29;20498;-65
2022/11/01 08:26:58;;;;;;;13.40;2.05;;;;;;;;;;4947984;28;20074;-65
2022/11/01 08:29:23;;;;;;;16.23;2.60;;;14.60;99.90;;;;;;4933153;29;20074;-64
2022/11/01 08:31:49;;;;;;;16.65;2.28;;;14.50;99.90;;;;;;4938371;29;20090;-66
2022/11/01 08:34:14;;;;;;;21.33;3.25;;;14.60;99.90;;;;;;4953388;28;20044;-65
2022/11/01 08:36:40;;;;;;;14.35;2.47;;;14.90;99.90;;;;;;4956350;28;20059;-64
2022/11/01 08:39:06;;;;;;;20.52;2.50;;;14.90;99.90;;;;;;4956185;29;20378;-66
2022/11/01 08:41:31;;;;;;;14.57;3.28;;;15.00;99.90;;;;;;4937156;29;20445;-66
2022/11/01 08:43:57;;;;;;;17.35;2.83;;;15.10;99.90;;;;;;4937451;29;20039;-66
2022/11/01 08:46:23;;;;;;;12.43;2.30;;;15.20;99.90;;;;;;4939086;29;20051;-66
2022/11/01 08:48:54;;;;;;;15.75;2.58;;;15.90;99.90;;;;;;4956258;29;20532;-65
2022/11/01 08:51:24;;;;;;;14.63;2.88;;;16.40;99.90;;;;;;4955889;28;20502;-66
2022/11/01 08:53:57;;;;;;;16.02;2.42;;;16.30;99.90;;;;;;4938488;29;20043;-64
2022/11/01 08:56:23;;;;;;;15.73;3.58;;;16.30;99.90;;;;;;4930124;29;20532;-64
2022/11/01 08:58:53;;;;;;;17.27;4.63;;;16.30;99.90;;;;;;4925141;29;20490;-64
2022/11/01 09:01:21;;;;;;;14.98;2.50;;;16.70;99.90;;;;;;4938751;29;20502;-65
2022/11/01 09:03:46;;;;;;;14.77;2.85;;;16.80;99.90;;;;;;4931635;29;20046;-64
2022/11/01 09:06:12;;;;;;;15.85;3.33;;;16.90;99.90;;;;;;4938072;28;20047;-65
2022/11/01 09:08:38;;;;;;;18.58;2.70;;;17.40;99.90;;;;;;4938280;28;20047;-64
2022/11/01 09:11:05;;;;;;;11.70;2.13;;;17.60;99.90;;;;;;4954091;28;20071;-64
2022/11/01 09:13:31;;;;;;;14.43;2.58;;;17.90;99.90;;;;;;4922355;29;20044;-64
2022/11/01 09:15:57;;;;;;;13.63;2.45;;;18.00;99.90;;;;;;4955570;29;20553;-65
2022/11/01 09:18:22;;;;;;;17.85;2.78;;;18.80;99.90;;;;;;4955512;29;20035;-64
2022/11/01 09:20:55;;;;;;;11.90;2.25;;;18.80;99.90;;;;;;4938361;29;20043;-64
2022/11/01 09:23:21;;;;;;;13.70;2.65;;;19.50;99.90;;;;;;4934652;29;20494;-65
2022/11/01 09:25:47;;;;;;;16.08;2.85;;;19.60;99.90;;;;;;4938501;29;20093;-64
2022/11/01 09:28:12;;;;;;;9.48;1.98;;;20.80;99.90;;;;;;4955232;29;20051;-65
2022/11/01 09:30:39;;;;;;;12.77;2.58;;;20.70;99.90;;;;;;4954024;29;20050;-64
2022/11/01 09:33:05;;;;;;;15.30;2.67;;;20.40;99.90;;;;;;4955382;29;20051;-64
2022/11/01 09:35:30;;;;;;;14.57;2.33;;;20.30;99.90;;;;;;4955190;29;20409;-64
2022/11/01 09:38:00;;;;;;;18.13;3.42;;;18.90;99.90;;;;;;4938170;29;20047;-64
2022/11/01 09:40:29;;;;;;;16.65;3.10;;;18.40;99.90;;;;;;4955268;29;20042;-64
2022/11/01 09:42:56;;;;;;;23.67;3.03;;;17.80;99.90;;;;;;4935269;28;20173;-65
2022/11/01 09:45:25;;;;;;;13.88;2.10;;;17.70;99.90;;;;;;4954833;29;20054;-65
2022/11/01 09:47:53;;;;;;;13.60;2.15;;;17.20;99.90;;;;;;4949067;28;20059;-64
2022/11/01 09:50:35;;;;;;;13.10;2.10;;;16.80;99.90;;;;;;4954804;29;20043;-64
2022/11/01 09:53:08;;;;;;;12.15;2.80;;;16.80;99.90;;;;;;4953080;28;20113;-64
2022/11/01 09:55:47;;;;;;;11.18;1.85;;;16.60;99.90;;;;;;4954787;29;20046;-64
2022/11/01 09:58:40;;;;;;;13.60;1.90;;;16.70;99.90;;;;;;4925631;29;20062;-64
2022/11/01 10:01:23;;;;;;;17.25;2.55;;;16.60;99.90;;;;;;4954885;28;20035;-64
2022/11/01 10:04:10;;;;;;;17.38;2.88;;;16.40;99.90;;;;;;4937892;29;20413;-64
2022/11/01 10:06:44;;;;;;;13.95;2.50;;;16.10;99.90;;;;;;4937460;29;20486;-64
2022/11/01 10:09:26;;;;;;;11.85;2.03;;;16.10;99.90;;;;;;4937507;29;20051;-65
2022/11/01 10:12:00;;;;;;;14.15;2.63;;;16.20;99.90;;;;;;4935710;29;20460;-64
2022/11/01 10:14:29;;;;;;;13.30;2.05;;;16.30;99.90;;;;;;4954886;28;20059;-64
2022/11/01 10:17:13;;;;;;;12.38;2.13;;;16.20;99.90;;;;;;4938956;28;20043;-64
2022/11/01 10:19:45;;;;;;;15.05;2.60;;;16.30;99.90;;;;;;4953004;28;20043;-65
2022/11/01 10:22:30;;;;;;;18.73;3.28;;;16.40;99.90;;;;;;4937504;29;20035;-66
2022/11/01 10:24:57;;;;;;;;;;;16.10;99.90;;;;;;4955054;28;20047;-65
2022/11/01 10:27:38;;;;;;;16.80;3.40;;;16.50;99.90;;;;;;4952786;29;19925;-66
2022/11/01 10:30:11;;;;;;;23.77;5.25;;;16.30;99.90;;;;;;4937281;29;20053;-66
2022/11/01 10:32:50;;;;;;;14.13;2.95;;;16.10;99.90;;;;;;4921466;29;20047;-65
2022/11/01 10:35:27;;;;;;;11.13;2.22;;;15.80;99.90;;;;;;4954071;29;20469;-66
2022/11/01 10:38:05;;;;;;;16.08;3.05;;;15.70;99.90;;;;;;4954505;29;20123;-66
2022/11/01 10:40:42;;;;;;;11.65;2.03;;;15.70;99.90;;;;;;4935343;29;20035;-65
2022/11/01 10:43:17;;;;;;;12.10;2.53;;;15.60;99.90;;;;;;4954682;29;20413;-66
2022/11/01 10:45:46;;;;;;;19.75;2.05;;;15.60;99.90;;;;;;4954127;29;20118;-65
2022/11/01 10:48:22;;;;;;;12.30;1.92;;;15.40;99.90;;;;;;4954095;29;20514;-65
2022/11/01 10:50:49;;;;;;;12.60;2.25;;;15.20;99.90;;;;;;4921355;29;20520;-65
2022/11/01 10:53:17;;;;;;;19.00;2.40;;;15.10;99.90;;;;;;4921374;29;20051;-65
2022/11/01 10:55:46;;;;;;;17.88;2.65;;;15.30;99.90;;;;;;4952422;29;20461;-65
2022/11/01 10:58:38;;;;;;;16.45;3.25;;;15.10;99.90;;;;;;4937111;29;20043;-65
2022/11/01 11:01:08;;;;;;;16.65;2.70;;;15.20;99.90;;;;;;4937069;29;20110;-65
2022/11/01 11:03:34;;;;;;;9.88;2.20;;;15.20;99.90;;;;;;4937054;29;20039;-65
2022/11/01 11:06:06;;;;;;;18.48;3.20;;;15.20;99.90;;;;;;4937119;29;20102;-65
2022/11/01 11:08:32;;;;;;;9.25;2.15;;;15.30;99.90;;;;;;4937399;29;20150;-65
2022/11/01 11:11:03;;;;;;;19.95;3.17;;;15.40;99.90;;;;;;4952480;29;20082;-65
2022/11/01 11:13:30;;;;;;;16.45;3.30;;;15.40;99.90;;;;;;4954144;29;20047;-65
2022/11/01 11:16:04;;;;;;;13.45;2.72;;;15.60;99.90;;;;;;4949978;28;20035;-65
2022/11/01 11:18:36;;;;;;;13.10;2.43;;;15.60;99.90;;;;;;4941434;29;20514;-65
2022/11/01 11:21:08;;;;;;;16.40;3.03;;;15.70;99.90;;;;;;4937428;29;20058;-65
2022/11/01 11:23:43;;;;;;;18.17;2.63;;;15.90;99.90;;;;;;4942649;29;20060;-65
2022/11/01 11:26:12;;;;;;;;;;;15.80;99.90;;;;;;4954818;28;20055;-65
2022/11/01 11:28:43;;;;;;;14.30;2.08;;;16.00;99.90;;;;;;4943459;29;19958;-65
2022/11/01 11:31:23;;;;;;;16.45;2.45;;;16.70;99.90;;;;;;4957662;29;20125;-66
2022/11/01 11:33:55;;;;;;;9.85;2.33;;;17.00;99.90;;;;;;4936107;29;20110;-65
2022/11/01 11:36:26;;;;;;;13.20;2.28;;;16.80;99.90;;;;;;4957385;29;20059;-66
2022/11/01 11:38:53;;;;;;;11.48;2.03;;;16.60;99.90;;;;;;4949678;29;20074;-66
2022/11/01 11:41:37;;;;;;;11.40;2.35;;;16.40;99.90;;;;;;4955456;29;20438;-66
2022/11/01 11:44:23;;;;;;;18.02;2.95;;;16.50;99.90;;;;;;4924196;29;20047;-66
2022/11/01 11:46:56;;;;;;;14.75;2.22;;;16.40;99.90;;;;;;4940054;29;20090;-65
2022/11/01 11:49:26;;;;;;;13.15;2.35;;;16.40;99.90;;;;;;4940286;29;20055;-65
2022/11/01 11:51:52;;;;;;;16.08;2.75;;;16.50;99.90;;;;;;4957493;29;20047;-65
2022/11/01 11:54:30;;;;;;;11.27;2.50;;;16.50;99.90;;;;;;4956943;29;20075;-65
2022/11/01 11:57:14;;;;;;;9.43;1.90;;;16.20;99.90;;;;;;4937680;29;20059;-65
2022/11/01 11:59:41;;;;;;;10.63;2.10;;;16.30;99.90;;;;;;4939978;29;20050;-65
2022/11/01 12:02:18;;;;;;;12.68;1.98;;;16.40;99.90;;;;;;4939807;29;20078;-65
2022/11/01 12:04:56;;;;;;;14.98;2.28;;;16.30;99.90;;;;;;4940073;29;20401;-65
2022/11/01 12:07:32;;;;;;;7.50;1.75;;;16.30;99.90;;;;;;4937743;29;20054;-65
2022/11/01 12:10:04;;;;;;;12.38;1.65;;;16.50;99.90;;;;;;4953554;28;20087;-65
2022/11/01 12:12:33;;;;;;;14.98;2.65;;;16.70;99.90;;;;;;4936300;29;20569;-66
2022/11/01 12:15:02;;;;;;;13.88;2.63;;;16.50;99.90;;;;;;4951790;28;20049;-66
2022/11/01 12:17:30;;;;;;;12.50;2.85;;;17.00;99.90;;;;;;4939510;29;20044;-65
2022/11/01 12:20:19;;;;;;;10.65;2.92;;;16.90;99.90;;;;;;4954854;28;20475;-66
2022/11/01 12:23:27;;;;;;;9.48;2.05;;;16.80;99.90;;;;;;4950998;28;20043;-65
2022/11/01 12:25:54;;;;;;;11.45;2.00;;;16.80;99.90;;;;;;4938932;28;20505;-66
2022/11/01 12:28:30;;;;;;;10.38;1.85;;;16.70;99.90;;;;;;4956476;28;20086;-65
2022/11/01 12:31:02;;;;;;;20.50;2.88;;;16.90;99.90;;;;;;4930859;29;20042;-66
2022/11/01 12:33:35;;;;;;;14.50;2.17;;;17.10;99.90;;;;;;4955957;28;20569;-66
2022/11/01 12:36:02;;;;;;;10.25;2.38;;;17.00;99.90;;;;;;4954057;29;20115;-65
2022/11/01 12:38:47;;;;;;;11.75;2.20;;;16.80;99.90;;;;;;4955736;28;20062;-64
2022/11/01 12:41:36;;;;;;;12.27;2.10;;;16.70;99.90;;;;;;4938094;29;20039;-65
2022/11/01 12:44:23;;;;;;;10.88;2.00;;;16.70;99.90;;;;;;4937836;28;20502;-65
2022/11/01 12:46:57;;;;;;;14.35;2.67;;;16.80;99.90;;;;;;4953903;28;20047;-65
2022/11/01 12:49:46;;;;;;;10.35;1.88;;;17.00;99.90;;;;;;4954077;28;20046;-65
2022/11/01 12:52:36;;;;;;;13.70;2.55;;;16.80;99.90;;;;;;4938365;28;20039;-63
2022/11/01 12:55:21;;;;;;;14.13;1.88;;;16.80;99.90;;;;;;4953773;28;20071;-65
2022/11/01 12:57:47;;;;;;;8.55;1.85;;;17.20;99.90;;;;;;4922569;29;20079;-65
2022/11/01 13:00:19;;;;;;;11.07;2.38;;;17.70;99.90;;;;;;4949201;28;20031;-66
2022/11/01 13:03:04;;;;;;;8.70;1.67;;;17.70;99.90;;;;;;4955734;29;20082;-64
2022/11/01 13:05:54;;;;;;;11.68;2.10;;;17.60;99.90;;;;;;4954856;29;20087;-65